Hauptseite
METAR-TAF:

METAR-TAF

Flughäfen :

Rabat, Marokko

Flughafen Rabat-Salé

Breite: 34-03N, Länge: 006-46W, Höhe: 84 m

Beobachtung

Neuester Wetterbericht von vor 31 Minuten, um 17:30 UTC
Wind 3 kt aus Nord
Temperatur 17°C
Luftfeuchtigkeit 55%
Luftdruck 1016 hPa
Sichtweite: 7000 m

METAR: GMME 191730Z 36003KT 7000 NSC 17/08 Q1016 NOSIG

Zeit: 18:01 (18:01 UTC)

Prognose

Neuester Wetterbericht von vor 1 Stunde und 1 Minuten, um 17:00 UTC
Gültige Prognose vom 19 um 18 UTC bis 20 um 24 UTC
Wind 5 kt aus Nord/Nordwest
Sichtweite: 8000 m
Wahrscheinlichkeit 30% :
Zeitweise
vom 20 um 01 UTC bis 20 um 06 UTC
Sichtweite: 3000 m
feuchter Dunst

TAF: GMME 191700Z 1918/2024 34005KT 8000 NSC PROB30 TEMPO 2001/2006 3000 BR

Wetterbeobachtungen und Prognosen von mehr als 4000 Flughäfen (METAR und TAF Bericht).

Die verfügbaren Stationen werden durch gelbe und rote Markierungen auf der Karte dargestellt.

Führen Sie die Maus auf sie, um den Namen der Station zu sehen.

Darauf klicken, um die Beobachtung von Wetterbeobachtungen und Prognosen zu sehen.

Um die Karte zu ändern : klicken Sie auf den grünen Tasten mit einem schwarzen Kreuz Zum Vergrößern, auf den grünen Button mit einem Gedankenstrich zu verkleinern, oder auf die grünen Pfeile für benachbarte Karten.


METAR-TAF: